Time;durP1;ratioP1;P1;durP2;ratioP2;P2;SDS_P1;SDS_P2;PMS_P1;PMS_P2;Temp;Humidity;BMP_temperature;BMP_pressure;BME280_temperature;BME280_humidity;BME280_pressure;Samples;Min_cycle;Max_cycle;Signal;HPM_P1;HPM_P2
2023/06/18 00:01:04;;;;;;;7.77;7.00;;;14.90;99.90;;;;;;5021413;28;20229;-82
2023/06/18 00:03:31;;;;;;;7.30;6.50;;;14.90;99.90;;;;;;5022842;28;20900;-81
2023/06/18 00:05:57;;;;;;;8.23;7.43;;;14.90;99.90;;;;;;5022630;28;20238;-82
2023/06/18 00:08:24;;;;;;;7.30;6.60;;;14.80;99.90;;;;;;5019570;28;20553;-82
2023/06/18 00:10:53;;;;;;;8.43;7.60;;;14.80;99.90;;;;;;5019540;28;20351;-82
2023/06/18 00:13:19;;;;;;;7.87;6.53;;;14.80;99.90;;;;;;5019361;28;20231;-82
2023/06/18 00:15:46;;;;;;;7.97;7.20;;;14.80;99.90;;;;;;5021687;28;21027;-82
2023/06/18 00:18:13;;;;;;;7.13;6.43;;;14.70;99.90;;;;;;5023465;28;20759;-83
2023/06/18 00:20:41;;;;;;;10.10;7.40;;;14.70;99.90;;;;;;5025523;28;20236;-82
2023/06/18 00:23:08;;;;;;;9.93;7.60;;;14.60;99.90;;;;;;5021700;28;20769;-82
2023/06/18 00:25:36;;;;;;;7.37;6.67;;;14.60;99.90;;;;;;5021597;28;20231;-83
2023/06/18 00:28:05;;;;;;;8.30;7.50;;;14.60;99.90;;;;;;5022935;28;20281;-82
2023/06/18 00:30:32;;;;;;;7.50;6.80;;;14.60;99.90;;;;;;5022604;28;20670;-82
2023/06/18 00:32:59;;;;;;;7.10;6.40;;;14.50;99.90;;;;;;5021527;28;20308;-83
2023/06/18 00:35:26;;;;;;;7.60;6.90;;;14.50;99.90;;;;;;5022258;28;20239;-83
2023/06/18 00:37:52;;;;;;;7.60;6.90;;;14.50;99.90;;;;;;5021378;28;20226;-82
2023/06/18 00:40:19;;;;;;;8.43;7.53;;;14.40;99.90;;;;;;5016276;28;20220;-82
2023/06/18 00:42:48;;;;;;;7.60;6.90;;;14.40;99.90;;;;;;5015855;28;20234;-82
2023/06/18 00:45:16;;;;;;;7.97;7.17;;;14.40;99.90;;;;;;5017138;28;20223;-83
2023/06/18 00:47:44;;;;;;;7.40;6.70;;;14.30;99.90;;;;;;5040176;28;20839;-82
2023/06/18 00:50:14;;;;;;;7.83;7.13;;;14.30;99.90;;;;;;5023831;28;20209;-83
2023/06/18 00:52:44;;;;;;;7.93;7.13;;;14.30;99.90;;;;;;5036623;28;20966;-82
2023/06/18 00:55:12;;;;;;;8.83;7.73;;;14.30;99.90;;;;;;5036662;28;20223;-83
2023/06/18 00:57:38;;;;;;;8.23;7.40;;;14.20;99.90;;;;;;5018312;28;20254;-83
2023/06/18 01:00:11;;;;;;;7.73;7.03;;;14.20;99.90;;;;;;5022429;28;20635;-82
2023/06/18 01:02:45;;;;;;;7.90;7.00;;;14.20;99.90;;;;;;5031148;28;20281;-83
2023/06/18 01:05:13;;;;;;;8.93;7.47;;;14.10;99.90;;;;;;5053942;28;20841;-83
2023/06/18 01:07:41;;;;;;;9.50;7.63;;;14.10;99.90;;;;;;5039002;28;20232;-84
2023/06/18 01:10:11;;;;;;;7.67;6.87;;;14.10;99.90;;;;;;5026034;28;20872;-83
2023/06/18 01:12:38;;;;;;;8.00;7.20;;;14.00;99.90;;;;;;5022546;28;20235;-83
2023/06/18 01:15:09;;;;;;;8.60;7.77;;;14.00;99.90;;;;;;5020629;28;20311;-82
2023/06/18 01:17:37;;;;;;;8.47;7.50;;;14.00;99.90;;;;;;5025717;28;20240;-82
2023/06/18 01:20:10;;;;;;;8.23;7.33;;;13.90;99.90;;;;;;5023695;28;20599;-83
2023/06/18 01:22:40;;;;;;;7.70;7.00;;;13.90;99.90;;;;;;5023452;28;20311;-83
2023/06/18 01:25:09;;;;;;;8.63;7.07;;;13.80;99.90;;;;;;5022938;28;20228;-83
2023/06/18 01:27:40;;;;;;;7.73;6.93;;;13.80;99.90;;;;;;5023336;28;20255;-83
2023/06/18 01:30:08;;;;;;;8.67;7.27;;;13.80;99.90;;;;;;5025905;28;20231;-84
2023/06/18 01:32:37;;;;;;;9.20;7.53;;;13.70;99.90;;;;;;5024085;28;20227;-84
2023/06/18 01:35:08;;;;;;;9.63;7.80;;;13.70;99.90;;;;;;5047759;28;20228;-83
2023/06/18 01:37:44;;;;;;;8.40;7.60;;;13.70;99.90;;;;;;5021829;28;20239;-83
2023/06/18 01:40:32;;;;;;;10.40;8.40;;;13.60;99.90;;;;;;5018859;28;20246;-83
2023/06/18 01:43:08;;;;;;;9.70;7.60;;;13.60;99.90;;;;;;5021580;28;20319;-84
2023/06/18 01:45:44;;;;;;;8.20;7.47;;;13.50;99.90;;;;;;5052932;28;20684;-84
2023/06/18 01:48:12;;;;;;;8.20;7.40;;;13.50;99.90;;;;;;5019077;28;20235;-84
2023/06/18 01:50:44;;;;;;;9.20;7.70;;;13.50;99.90;;;;;;5022730;28;20929;-83
2023/06/18 01:53:15;;;;;;;8.57;7.77;;;13.40;99.90;;;;;;5037120;28;20221;-84
2023/06/18 01:55:45;;;;;;;8.73;7.90;;;13.40;99.90;;;;;;5028336;28;20280;-82
2023/06/18 01:58:13;;;;;;;8.43;7.73;;;13.30;99.90;;;;;;5049689;28;20216;-84
2023/06/18 02:00:40;;;;;;;8.47;7.63;;;13.30;99.90;;;;;;5027740;28;20282;-82
2023/06/18 02:03:07;;;;;;;8.50;7.60;;;13.30;99.90;;;;;;5030135;28;20280;-82
2023/06/18 02:05:34;;;;;;;9.27;8.37;;;13.20;99.90;;;;;;5029081;28;20235;-82
2023/06/18 02:08:02;;;;;;;8.70;7.63;;;13.20;99.90;;;;;;5023845;28;20315;-82
2023/06/18 02:10:29;;;;;;;8.47;7.57;;;13.20;99.90;;;;;;5021207;28;20227;-83
2023/06/18 02:12:56;;;;;;;8.73;7.90;;;13.20;99.90;;;;;;5022792;28;20792;-83
2023/06/18 02:15:22;;;;;;;9.80;8.67;;;13.20;99.90;;;;;;5022412;28;20277;-83
2023/06/18 02:17:50;;;;;;;9.27;8.37;;;13.10;99.90;;;;;;5021020;28;20248;-84
2023/06/18 02:20:17;;;;;;;9.93;8.57;;;13.20;99.90;;;;;;5019545;28;20246;-83
2023/06/18 02:22:44;;;;;;;9.87;8.83;;;13.10;99.90;;;;;;5028228;28;20304;-83
2023/06/18 02:25:13;;;;;;;9.27;8.37;;;13.10;99.90;;;;;;5040004;28;20224;-85
2023/06/18 02:27:40;;;;;;;9.20;8.30;;;13.10;99.90;;;;;;5017334;28;20893;-82
2023/06/18 02:30:08;;;;;;;8.60;7.80;;;13.00;99.90;;;;;;5020369;28;20236;-82
2023/06/18 02:32:39;;;;;;;11.07;9.93;;;13.00;99.90;;;;;;5039013;28;22214;-82
2023/06/18 02:35:07;;;;;;;9.63;8.63;;;13.00;99.90;;;;;;5021104;28;20223;-83
2023/06/18 02:37:33;;;;;;;10.20;9.17;;;13.00;99.90;;;;;;5021477;28;20243;-82
2023/06/18 02:40:00;;;;;;;9.60;8.70;;;12.90;99.90;;;;;;5020890;28;20249;-82
2023/06/18 02:42:28;;;;;;;9.73;8.73;;;12.90;99.90;;;;;;5021603;28;20316;-82
2023/06/18 02:44:54;;;;;;;9.80;8.90;;;12.90;99.90;;;;;;5038287;28;20239;-83
2023/06/18 02:47:21;;;;;;;10.57;9.47;;;12.80;99.90;;;;;;5022772;28;20322;-84
2023/06/18 02:49:48;;;;;;;9.20;8.30;;;12.80;99.90;;;;;;5024281;28;20250;-81
2023/06/18 02:52:15;;;;;;;8.93;8.03;;;12.80;99.90;;;;;;5024972;28;20315;-82
2023/06/18 02:54:43;;;;;;;8.77;7.70;;;12.70;99.90;;;;;;5026617;28;20281;-82
2023/06/18 02:57:10;;;;;;;9.73;8.43;;;12.70;99.90;;;;;;5037430;28;20236;-82
2023/06/18 02:59:38;;;;;;;9.83;8.50;;;12.70;99.90;;;;;;5026332;28;20231;-80
2023/06/18 03:02:06;;;;;;;9.07;8.13;;;12.70;99.90;;;;;;5037584;28;20347;-82
2023/06/18 03:04:34;;;;;;;8.50;7.07;;;12.60;99.90;;;;;;5025570;28;20224;-82
2023/06/18 03:07:01;;;;;;;9.20;8.30;;;12.60;99.90;;;;;;5020810;28;20606;-82
2023/06/18 03:09:29;;;;;;;11.27;9.00;;;12.60;99.90;;;;;;5006626;28;20229;-82
2023/06/18 03:11:56;;;;;;;10.10;9.10;;;12.50;99.90;;;;;;5009126;28;20232;-82
2023/06/18 03:14:25;;;;;;;8.77;7.97;;;12.50;99.90;;;;;;5006056;28;20237;-81
2023/06/18 03:16:56;;;;;;;9.43;8.53;;;12.50;99.90;;;;;;5002655;28;20226;-82
2023/06/18 03:19:24;;;;;;;9.73;8.63;;;12.60;99.90;;;;;;5026188;28;20247;-83
2023/06/18 03:21:52;;;;;;;11.30;9.47;;;12.50;99.90;;;;;;5038920;28;20220;-82
2023/06/18 03:24:19;;;;;;;10.63;9.63;;;12.50;99.90;;;;;;5028320;28;20245;-83
2023/06/18 03:26:46;;;;;;;9.87;8.87;;;12.50;99.90;;;;;;5011782;28;20235;-83
2023/06/18 03:29:15;;;;;;;10.00;8.63;;;12.50;99.90;;;;;;5035480;28;20281;-83
2023/06/18 03:31:44;;;;;;;9.03;8.23;;;12.50;99.90;;;;;;5028568;28;20249;-81
2023/06/18 03:34:12;;;;;;;10.20;9.20;;;12.50;99.90;;;;;;5011455;28;20221;-81
2023/06/18 03:36:41;;;;;;;10.30;9.30;;;12.50;99.90;;;;;;5011033;28;20941;-81
2023/06/18 03:39:10;;;;;;;9.97;8.97;;;12.40;99.90;;;;;;5008675;28;20214;-81
2023/06/18 03:41:38;;;;;;;9.93;8.93;;;12.40;99.90;;;;;;5010520;28;20974;-81
2023/06/18 03:44:06;;;;;;;10.07;9.17;;;12.40;99.90;;;;;;5008575;28;20231;-81
2023/06/18 03:46:33;;;;;;;11.47;10.37;;;12.40;99.90;;;;;;5014515;28;20228;-81
2023/06/18 03:49:01;;;;;;;12.47;9.53;;;12.30;99.90;;;;;;5014536;28;20218;-81
2023/06/18 03:51:29;;;;;;;9.70;8.57;;;12.30;99.90;;;;;;5010079;28;20907;-82
2023/06/18 03:53:56;;;;;;;10.03;9.00;;;12.30;99.90;;;;;;5009505;28;20213;-81
2023/06/18 03:56:24;;;;;;;10.17;8.63;;;12.30;99.90;;;;;;5013173;28;20724;-81
2023/06/18 03:58:51;;;;;;;10.63;9.53;;;12.30;99.90;;;;;;5006561;28;20550;-81
2023/06/18 04:01:18;;;;;;;10.30;9.40;;;12.30;99.90;;;;;;5036609;28;20230;-81
2023/06/18 04:03:45;;;;;;;11.67;10.17;;;12.40;99.90;;;;;;5004985;28;20229;-82
2023/06/18 04:06:12;;;;;;;12.63;10.00;;;12.40;99.90;;;;;;5005229;28;20234;-80
2023/06/18 04:08:41;;;;;;;11.27;10.13;;;12.40;99.90;;;;;;5004108;28;20239;-81
2023/06/18 04:11:08;;;;;;;11.00;9.80;;;12.40;99.90;;;;;;5023885;28;20221;-81
2023/06/18 04:13:36;;;;;;;10.67;9.60;;;12.50;99.90;;;;;;5009811;28;20369;-81
2023/06/18 04:16:03;;;;;;;10.53;9.53;;;12.50;99.90;;;;;;5036273;28;20250;-81
2023/06/18 04:18:31;;;;;;;10.83;8.97;;;12.60;99.90;;;;;;5006335;28;20286;-81
2023/06/18 04:20:58;;;;;;;11.70;9.80;;;12.70;99.90;;;;;;5027344;28;20279;-81
2023/06/18 04:23:25;;;;;;;11.27;10.07;;;12.70;99.90;;;;;;5027006;28;20315;-81
2023/06/18 04:25:53;;;;;;;11.43;10.13;;;12.80;99.90;;;;;;5037140;28;20218;-81
2023/06/18 04:28:22;;;;;;;11.63;10.43;;;12.90;99.90;;;;;;5018905;28;20226;-80
2023/06/18 04:30:49;;;;;;;11.93;10.53;;;12.90;99.90;;;;;;5021865;28;20231;-81
2023/06/18 04:33:16;;;;;;;10.63;9.53;;;13.00;99.90;;;;;;5022929;28;20249;-81
2023/06/18 04:35:45;;;;;;;12.40;10.17;;;13.10;99.90;;;;;;5026112;28;20221;-82
2023/06/18 04:38:11;;;;;;;11.93;9.70;;;13.10;99.90;;;;;;5022000;28;20228;-81
2023/06/18 04:40:39;;;;;;;10.77;9.67;;;13.10;99.90;;;;;;5026985;28;20220;-82
2023/06/18 04:43:08;;;;;;;11.90;10.53;;;13.30;99.90;;;;;;5023141;28;20220;-81
2023/06/18 04:45:37;;;;;;;12.00;10.80;;;13.30;99.90;;;;;;5018743;28;20658;-79
2023/06/18 04:48:04;;;;;;;10.97;9.87;;;13.40;99.90;;;;;;5025345;28;20233;-82
2023/06/18 04:50:33;;;;;;;11.03;9.93;;;13.50;99.90;;;;;;5022136;28;20277;-79
2023/06/18 04:53:01;;;;;;;11.77;10.57;;;13.50;99.90;;;;;;5019625;28;21364;-80
2023/06/18 04:55:28;;;;;;;11.63;10.43;;;13.60;99.90;;;;;;5025798;28;20675;-81
2023/06/18 04:57:56;;;;;;;11.37;10.23;;;13.70;99.90;;;;;;5028651;28;20224;-82
2023/06/18 05:00:24;;;;;;;10.57;9.47;;;13.80;99.90;;;;;;5029550;28;20380;-82
2023/06/18 05:02:53;;;;;;;10.53;9.53;;;13.90;99.90;;;;;;5026799;28;20876;-82
2023/06/18 05:05:20;;;;;;;10.70;9.60;;;14.00;99.90;;;;;;5031135;28;20242;-83
2023/06/18 05:07:50;;;;;;;11.57;10.37;;;14.10;99.90;;;;;;5017177;28;20302;-83
2023/06/18 05:10:18;;;;;;;12.47;10.67;;;14.30;99.90;;;;;;5024398;28;21176;-82
2023/06/18 05:12:45;;;;;;;11.00;9.70;;;14.40;99.90;;;;;;5023101;28;20262;-81
2023/06/18 05:15:13;;;;;;;11.00;9.90;;;14.50;99.90;;;;;;5022656;28;20273;-81
2023/06/18 05:17:41;;;;;;;10.23;9.20;;;14.60;99.90;;;;;;5038764;28;21180;-81
2023/06/18 05:20:13;;;;;;;11.50;10.30;;;14.70;99.90;;;;;;5022954;28;20285;-82
2023/06/18 05:22:40;;;;;;;12.73;10.53;;;14.80;99.90;;;;;;5023293;28;20329;-82
2023/06/18 05:25:09;;;;;;;13.20;11.40;;;14.90;99.90;;;;;;5023217;28;20219;-81
2023/06/18 05:27:36;;;;;;;12.00;10.47;;;14.90;99.90;;;;;;5021813;28;20936;-82
2023/06/18 05:30:04;;;;;;;11.57;10.47;;;15.10;99.90;;;;;;5022916;28;20252;-80
2023/06/18 05:32:32;;;;;;;12.67;10.73;;;15.10;99.90;;;;;;5024183;28;20330;-81
2023/06/18 05:35:05;;;;;;;11.53;10.33;;;15.20;99.90;;;;;;5026352;28;20243;-81
2023/06/18 05:37:37;;;;;;;11.40;9.90;;;15.30;99.90;;;;;;5022318;28;20361;-81
2023/06/18 05:40:06;;;;;;;12.13;10.87;;;15.40;99.90;;;;;;5015077;28;20216;-81
2023/06/18 05:42:32;;;;;;;11.40;10.30;;;15.50;99.90;;;;;;5022681;28;20675;-79
2023/06/18 05:45:00;;;;;;;11.57;10.37;;;15.60;99.90;;;;;;5019241;28;20287;-82
2023/06/18 05:47:27;;;;;;;11.97;10.70;;;15.60;99.90;;;;;;5017482;28;20232;-82
2023/06/18 05:49:57;;;;;;;11.73;10.63;;;15.80;99.90;;;;;;5023215;28;20282;-81
2023/06/18 05:52:25;;;;;;;11.53;10.43;;;15.90;99.90;;;;;;5022733;28;20233;-82
2023/06/18 05:54:52;;;;;;;11.63;10.43;;;16.00;99.90;;;;;;5039159;28;20263;-82
2023/06/18 05:57:20;;;;;;;11.77;10.63;;;16.10;99.90;;;;;;5020656;28;20722;-82
2023/06/18 05:59:48;;;;;;;11.47;10.27;;;16.20;99.90;;;;;;5016945;28;20338;-82
2023/06/18 06:02:16;;;;;;;11.33;9.80;;;16.30;99.90;;;;;;5010827;28;20216;-82
2023/06/18 06:04:43;;;;;;;11.67;10.47;;;16.40;99.90;;;;;;5021044;28;20229;-82
2023/06/18 06:07:11;;;;;;;11.20;10.10;;;16.60;99.90;;;;;;5024857;28;20229;-83
2023/06/18 06:09:40;;;;;;;11.60;10.45;;;16.70;99.90;;;;;;5030169;28;20359;-82
2023/06/18 06:12:08;;;;;;;11.47;10.27;;;16.80;99.90;;;;;;5030487;28;20212;-83
2023/06/18 06:14:35;;;;;;;12.27;11.07;;;16.90;99.90;;;;;;5047008;28;20286;-82
2023/06/18 06:17:01;;;;;;;12.40;11.13;;;17.00;99.90;;;;;;5027521;28;20235;-83
2023/06/18 06:19:28;;;;;;;10.60;9.60;;;17.10;99.90;;;;;;5026923;28;20584;-83
2023/06/18 06:21:55;;;;;;;11.70;10.60;;;17.20;99.90;;;;;;5042001;28;20304;-83
2023/06/18 06:24:22;;;;;;;16.10;10.98;;;17.30;99.90;;;;;;5025919;28;20283;-82
2023/06/18 06:26:51;;;;;;;12.07;10.98;;;17.40;99.90;;;;;;5026936;28;20340;-82
2023/06/18 06:29:18;;;;;;;11.93;10.40;;;17.60;99.90;;;;;;5021219;28;20284;-82
2023/06/18 06:31:44;;;;;;;11.80;10.70;;;17.70;99.90;;;;;;5024074;28;20303;-82
2023/06/18 06:34:12;;;;;;;13.52;10.43;;;18.00;99.90;;;;;;5027155;28;20224;-83
2023/06/18 06:36:39;;;;;;;11.23;10.13;;;18.10;99.90;;;;;;5029594;28;21004;-82
2023/06/18 06:39:07;;;;;;;12.68;10.18;;;18.30;99.90;;;;;;5027025;28;20240;-84
2023/06/18 06:41:34;;;;;;;10.30;9.30;;;18.40;99.90;;;;;;5023825;28;20251;-83
2023/06/18 06:44:04;;;;;;;10.98;9.68;;;18.50;99.90;;;;;;5028226;28;20997;-84
2023/06/18 06:46:49;;;;;;;8.75;7.85;;;18.70;99.90;;;;;;5029217;28;20259;-84
2023/06/18 06:49:35;;;;;;;7.43;6.72;;;18.80;99.90;;;;;;5028636;28;20655;-84
2023/06/18 06:52:25;;;;;;;8.73;7.93;;;18.90;99.90;;;;;;5021140;28;20221;-84
2023/06/18 06:54:51;;;;;;;9.05;7.13;;;19.00;99.90;;;;;;5045235;28;20224;-84
2023/06/18 06:57:19;;;;;;;7.90;7.20;;;19.20;99.90;;;;;;5025496;28;20228;-85
2023/06/18 06:59:47;;;;;;;7.53;6.80;;;19.40;99.90;;;;;;5061758;28;20282;-86
2023/06/18 07:02:14;;;;;;;6.47;5.88;;;19.70;99.90;;;;;;5025575;28;20240;-85
2023/06/18 07:04:45;;;;;;;6.82;6.13;;;20.20;99.90;;;;;;5021184;28;20308;-87
2023/06/18 07:07:13;;;;;;;6.20;5.60;;;20.80;99.90;;;;;;5026190;28;21236;-85
2023/06/18 07:09:40;;;;;;;6.18;5.43;;;21.40;99.90;;;;;;5040569;28;20227;-83
2023/06/18 07:12:07;;;;;;;4.90;4.50;;;22.10;99.90;;;;;;5027013;28;20242;-82
2023/06/18 07:14:35;;;;;;;5.13;4.63;;;22.80;99.90;;;;;;5027660;28;20879;-83
2023/06/18 07:17:03;;;;;;;4.65;4.25;;;23.60;99.70;;;;;;5022436;28;20625;-84
2023/06/18 07:19:30;;;;;;;5.10;4.22;;;24.40;98.20;;;;;;5055864;28;20246;-83
2023/06/18 07:21:57;;;;;;;4.32;3.92;;;25.20;97.50;;;;;;5026358;28;20228;-82
2023/06/18 07:24:23;;;;;;;3.80;3.50;;;26.10;96.50;;;;;;5024264;28;20232;-83
2023/06/18 07:26:50;;;;;;;4.20;3.90;;;26.80;95.40;;;;;;5022625;28;20225;-85
2023/06/18 07:29:17;;;;;;;4.05;3.60;;;27.60;93.90;;;;;;5037128;28;20224;-84
2023/06/18 07:31:43;;;;;;;4.50;4.10;;;28.40;92.30;;;;;;5020841;28;20233;-84
2023/06/18 07:34:11;;;;;;;4.07;3.67;;;29.10;90.40;;;;;;5026136;28;20304;-84
2023/06/18 07:36:38;;;;;;;4.18;3.70;;;29.70;86.70;;;;;;5024595;28;20220;-85
2023/06/18 07:39:05;;;;;;;4.00;3.70;;;30.30;84.90;;;;;;5029822;28;20253;-84
2023/06/18 07:41:31;;;;;;;4.30;3.70;;;30.90;82.00;;;;;;5025296;28;20232;-82
2023/06/18 07:43:58;;;;;;;4.22;3.83;;;31.30;76.40;;;;;;5022860;28;20245;-81
2023/06/18 07:46:25;;;;;;;4.40;4.00;;;31.70;76.60;;;;;;5021082;28;20312;-85
2023/06/18 07:48:52;;;;;;;4.30;3.90;;;32.10;74.70;;;;;;5026629;28;20231;-82
2023/06/18 07:51:20;;;;;;;4.47;4.07;;;32.40;73.00;;;;;;5028561;28;20241;-84
2023/06/18 07:53:47;;;;;;;4.20;3.90;;;32.70;69.20;;;;;;5026319;28;20224;-87
2023/06/18 07:56:14;;;;;;;3.95;3.55;;;33.00;68.90;;;;;;5020044;28;20255;-84
2023/06/18 07:58:40;;;;;;;3.92;3.63;;;33.20;65.40;;;;;;5056090;28;20248;-84
2023/06/18 08:01:07;;;;;;;4.53;3.30;;;33.30;64.70;;;;;;5023357;28;20316;-82
2023/06/18 08:03:34;;;;;;;4.43;3.17;;;33.50;61.80;;;;;;5024410;28;20225;-81
2023/06/18 08:06:00;;;;;;;4.90;3.17;;;33.50;61.00;;;;;;5031248;28;20220;-83
2023/06/18 08:08:28;;;;;;;4.32;3.50;;;33.60;59.50;;;;;;5028379;28;20263;-82
2023/06/18 08:10:55;;;;;;;4.20;3.75;;;33.50;58.60;;;;;;5028665;28;20239;-83
2023/06/18 08:13:22;;;;;;;3.67;3.38;;;33.70;57.30;;;;;;5032017;28;20231;-83
2023/06/18 08:15:49;;;;;;;5.57;3.42;;;33.80;58.50;;;;;;5041441;28;20248;-83
2023/06/18 08:18:15;;;;;;;4.22;3.88;;;33.90;58.30;;;;;;5032464;28;20309;-82
2023/06/18 08:20:42;;;;;;;4.18;3.78;;;34.00;56.10;;;;;;5029621;28;20217;-82
2023/06/18 08:23:09;;;;;;;4.63;3.78;;;34.10;56.60;;;;;;5025843;28;20227;-82
2023/06/18 08:25:37;;;;;;;4.28;3.88;;;34.00;56.50;;;;;;5027640;28;20262;-82
2023/06/18 08:28:04;;;;;;;4.18;3.78;;;34.10;54.90;;;;;;5024722;28;20654;-82
2023/06/18 08:30:30;;;;;;;4.40;4.00;;;34.10;55.70;;;;;;5029641;28;20224;-83
2023/06/18 08:32:58;;;;;;;4.43;4.00;;;34.30;55.60;;;;;;5029718;28;20216;-82
2023/06/18 08:35:25;;;;;;;4.47;4.07;;;34.50;55.10;;;;;;5025680;28;20226;-82
2023/06/18 08:37:51;;;;;;;5.30;4.10;;;34.70;55.30;;;;;;5031116;28;20341;-80
2023/06/18 08:40:23;;;;;;;4.03;3.63;;;34.90;54.20;;;;;;5032912;28;20841;-79
2023/06/18 08:42:51;;;;;;;4.50;3.78;;;35.20;53.10;;;;;;5029365;28;20813;-80
2023/06/18 08:45:18;;;;;;;4.10;3.80;;;35.30;51.10;;;;;;5031906;28;20223;-79
2023/06/18 08:47:48;;;;;;;4.05;3.72;;;35.30;50.30;;;;;;5030069;28;20738;-79
2023/06/18 08:50:19;;;;;;;4.10;3.70;;;35.30;50.70;;;;;;5033854;28;20227;-79
2023/06/18 08:52:52;;;;;;;4.15;3.75;;;35.30;50.30;;;;;;5031862;28;20320;-79
2023/06/18 08:55:19;;;;;;;4.93;3.42;;;35.30;49.60;;;;;;5020850;28;20599;-79
2023/06/18 08:57:55;;;;;;;3.85;3.50;;;35.30;49.70;;;;;;5027276;28;20224;-79
2023/06/18 09:00:22;;;;;;;3.80;3.50;;;35.30;49.30;;;;;;5032438;28;20315;-82
2023/06/18 09:02:49;;;;;;;3.60;3.30;;;35.30;49.00;;;;;;5027181;28;20239;-80
2023/06/18 09:05:17;;;;;;;3.72;3.42;;;35.40;48.80;;;;;;5029830;28;20220;-82
2023/06/18 09:07:44;;;;;;;4.35;3.95;;;35.50;48.60;;;;;;5022902;28;20242;-78
2023/06/18 09:10:11;;;;;;;3.60;3.30;;;35.60;48.40;;;;;;5038380;28;20267;-80
2023/06/18 09:12:38;;;;;;;3.67;3.38;;;35.80;48.00;;;;;;5026538;28;20235;-77
2023/06/18 09:15:07;;;;;;;4.07;3.65;;;35.90;47.20;;;;;;5027475;28;20225;-80
2023/06/18 09:17:35;;;;;;;3.75;3.45;;;36.00;46.40;;;;;;5022894;28;20233;-79
2023/06/18 09:20:03;;;;;;;3.50;3.20;;;36.00;46.50;;;;;;5023441;28;20312;-79
2023/06/18 09:22:29;;;;;;;4.22;3.83;;;36.00;45.90;;;;;;5027764;28;20317;-79
2023/06/18 09:25:02;;;;;;;5.78;3.88;;;36.10;46.50;;;;;;5030434;28;20217;-79
2023/06/18 09:27:32;;;;;;;4.30;4.00;;;36.20;47.00;;;;;;5028454;28;20243;-79
2023/06/18 09:29:59;;;;;;;4.25;3.30;;;36.30;46.50;;;;;;5030897;28;20223;-79
2023/06/18 09:32:27;;;;;;;4.50;4.10;;;36.50;45.40;;;;;;5033278;28;20313;-79
2023/06/18 09:34:54;;;;;;;3.92;3.63;;;36.60;45.30;;;;;;5028914;28;20235;-79
2023/06/18 09:37:21;;;;;;;3.70;3.40;;;36.70;45.10;;;;;;5032552;28;20311;-80
2023/06/18 09:39:51;;;;;;;4.05;3.72;;;36.80;44.40;;;;;;5046608;28;20213;-80
2023/06/18 09:42:18;;;;;;;4.65;3.70;;;37.00;44.10;;;;;;5028418;28;20710;-79
2023/06/18 09:44:45;;;;;;;3.67;3.38;;;37.10;44.00;;;;;;5036647;28;20239;-80
2023/06/18 09:47:15;;;;;;;3.53;3.22;;;37.30;42.40;;;;;;5029720;28;20620;-80
2023/06/18 09:49:53;;;;;;;3.95;3.45;;;37.50;41.70;;;;;;5026333;28;20224;-81
2023/06/18 09:52:24;;;;;;;3.78;3.45;;;37.60;41.90;;;;;;5045794;28;21560;-79
2023/06/18 09:54:51;;;;;;;3.60;3.15;;;37.80;41.90;;;;;;5031554;28;20224;-80
2023/06/18 09:57:18;;;;;;;4.10;3.80;;;38.00;41.40;;;;;;5024495;28;20529;-78
2023/06/18 09:59:44;;;;;;;4.43;3.78;;;38.10;40.90;;;;;;5032653;28;20800;-77
2023/06/18 10:02:13;;;;;;;3.63;3.33;;;38.10;40.60;;;;;;5025681;28;20726;-80
2023/06/18 10:04:40;;;;;;;4.00;3.60;;;38.10;40.70;;;;;;5033689;28;20862;-78
2023/06/18 10:07:15;;;;;;;3.70;3.40;;;38.10;40.60;;;;;;5024262;28;20229;-79
2023/06/18 10:09:45;;;;;;;4.00;3.70;;;38.10;40.40;;;;;;5027218;28;20240;-80
2023/06/18 10:12:15;;;;;;;4.97;3.80;;;38.00;40.90;;;;;;5023834;28;20224;-80
2023/06/18 10:14:42;;;;;;;4.18;3.88;;;38.00;40.80;;;;;;5029835;28;20803;-78
2023/06/18 10:17:10;;;;;;;4.15;3.85;;;38.00;40.50;;;;;;5030776;28;20220;-78
2023/06/18 10:19:44;;;;;;;4.15;3.75;;;38.10;40.40;;;;;;5032413;28;20236;-78
2023/06/18 10:22:15;;;;;;;4.05;3.67;;;38.10;39.90;;;;;;5032100;28;20212;-78
2023/06/18 10:24:47;;;;;;;3.97;3.40;;;38.10;40.10;;;;;;5030725;28;20217;-78
2023/06/18 10:27:15;;;;;;;3.42;3.13;;;38.10;38.80;;;;;;5033610;28;20228;-78
2023/06/18 10:29:42;;;;;;;4.53;3.45;;;38.10;38.70;;;;;;5050965;28;20237;-78
2023/06/18 10:32:09;;;;;;;3.65;3.35;;;38.20;38.60;;;;;;5029256;28;20217;-80
2023/06/18 10:34:37;;;;;;;3.83;3.40;;;38.10;39.10;;;;;;5028583;28;20280;-79
2023/06/18 10:37:04;;;;;;;3.70;3.40;;;38.10;38.30;;;;;;5033097;28;20228;-80
2023/06/18 10:39:33;;;;;;;4.15;3.75;;;38.10;37.60;;;;;;5032780;28;20902;-79
2023/06/18 10:42:12;;;;;;;3.55;3.25;;;38.10;37.10;;;;;;5032109;28;20224;-80
2023/06/18 10:44:50;;;;;;;4.20;3.80;;;38.00;37.30;;;;;;5028932;28;20290;-80
2023/06/18 10:47:19;;;;;;;3.88;3.17;;;38.00;37.70;;;;;;5029194;28;20232;-80
2023/06/18 10:50:16;;;;;;;3.83;3.53;;;38.00;38.20;;;;;;5030755;28;20228;-80
2023/06/18 10:52:45;;;;;;;4.47;3.60;;;38.10;37.60;;;;;;5031180;28;20291;-78
2023/06/18 10:55:15;;;;;;;4.43;3.28;;;38.10;38.20;;;;;;5032180;28;20251;-80
2023/06/18 10:57:44;;;;;;;3.53;3.22;;;38.20;37.30;;;;;;5026664;28;20286;-80
2023/06/18 11:00:18;;;;;;;3.30;3.00;;;38.20;37.20;;;;;;5028968;28;20231;-78
2023/06/18 11:02:46;;;;;;;3.83;3.53;;;38.10;37.10;;;;;;5027735;28;20501;-80
2023/06/18 11:05:17;;;;;;;4.28;3.92;;;38.00;37.30;;;;;;5055637;28;20288;-77
2023/06/18 11:07:44;;;;;;;4.47;3.58;;;37.90;37.30;;;;;;5030956;28;20217;-78
2023/06/18 11:10:11;;;;;;;4.43;3.80;;;37.80;37.70;;;;;;5035410;28;20220;-79
2023/06/18 11:12:44;;;;;;;4.70;3.90;;;37.80;37.80;;;;;;5033132;28;20259;-79
2023/06/18 11:15:18;;;;;;;4.55;3.95;;;37.80;37.60;;;;;;5029446;28;20304;-80
2023/06/18 11:17:48;;;;;;;4.40;4.00;;;37.80;38.20;;;;;;5028119;28;20219;-82
2023/06/18 11:20:15;;;;;;;4.28;3.88;;;37.90;38.50;;;;;;5027861;28;20307;-80
2023/06/18 11:22:43;;;;;;;4.55;4.15;;;37.80;38.30;;;;;;5030348;28;20715;-80
2023/06/18 11:25:13;;;;;;;4.47;4.07;;;37.80;38.10;;;;;;5029440;28;20258;-78
2023/06/18 11:27:43;;;;;;;3.90;3.60;;;37.70;37.70;;;;;;5023337;28;20461;-80
2023/06/18 11:30:12;;;;;;;4.15;3.85;;;37.50;37.60;;;;;;5020883;28;20731;-79
2023/06/18 11:32:39;;;;;;;3.78;3.47;;;37.30;37.80;;;;;;5020854;28;20231;-78
2023/06/18 11:35:07;;;;;;;4.47;4.07;;;37.10;38.20;;;;;;5016967;28;20225;-78
2023/06/18 11:37:34;;;;;;;4.30;4.00;;;36.80;38.70;;;;;;5018110;28;20278;-79
2023/06/18 11:40:01;;;;;;;4.72;4.32;;;36.70;38.70;;;;;;5024325;28;20226;-78
2023/06/18 11:42:28;;;;;;;4.15;3.85;;;36.60;38.30;;;;;;5028955;28;20224;-79
2023/06/18 11:45:01;;;;;;;4.60;4.20;;;36.50;39.40;;;;;;5027358;28;20231;-79
2023/06/18 11:47:28;;;;;;;4.85;4.45;;;36.50;38.80;;;;;;5029035;28;20240;-79
2023/06/18 11:49:55;;;;;;;4.05;3.75;;;36.50;38.70;;;;;;5027461;28;20251;-79
2023/06/18 11:52:23;;;;;;;4.18;3.60;;;36.50;38.70;;;;;;5030338;28;20275;-80
2023/06/18 11:54:50;;;;;;;6.03;4.15;;;36.50;38.40;;;;;;5034513;28;20221;-79
2023/06/18 11:57:19;;;;;;;4.57;4.18;;;36.60;38.50;;;;;;5027169;28;20228;-79
2023/06/18 11:59:50;;;;;;;4.32;4.00;;;36.70;38.40;;;;;;5025659;28;20669;-79
2023/06/18 12:02:19;;;;;;;4.55;4.10;;;36.70;38.70;;;;;;5019900;28;20221;-77
2023/06/18 12:04:47;;;;;;;4.32;3.95;;;36.70;38.40;;;;;;5017179;28;20937;-77
2023/06/18 12:07:16;;;;;;;4.10;3.80;;;36.80;38.20;;;;;;5021645;28;20241;-78
2023/06/18 12:09:44;;;;;;;4.72;4.32;;;36.80;38.30;;;;;;5023897;28;20220;-80
2023/06/18 12:12:19;;;;;;;4.30;3.90;;;36.80;38.20;;;;;;5018005;28;20267;-79
2023/06/18 12:14:53;;;;;;;4.38;3.97;;;36.90;38.00;;;;;;5023879;28;20255;-79
2023/06/18 12:17:32;;;;;;;4.20;3.90;;;36.90;37.70;;;;;;5024730;28;20222;-78
2023/06/18 12:20:02;;;;;;;4.40;4.00;;;36.90;37.40;;;;;;5019550;28;20222;-80
2023/06/18 12:22:29;;;;;;;4.30;3.90;;;36.90;37.80;;;;;;5021083;28;20229;-79
2023/06/18 12:24:56;;;;;;;3.88;3.55;;;37.00;37.80;;;;;;5025918;28;20220;-80
2023/06/18 12:27:24;;;;;;;4.80;4.25;;;37.00;37.60;;;;;;5026011;28;20246;-80
2023/06/18 12:29:52;;;;;;;4.20;3.90;;;37.00;37.20;;;;;;5023383;28;20221;-80
2023/06/18 12:32:19;;;;;;;4.13;3.83;;;37.00;37.30;;;;;;5022451;28;20749;-79
2023/06/18 12:34:47;;;;;;;4.40;4.00;;;37.00;37.30;;;;;;5024628;28;20703;-80
2023/06/18 12:37:13;;;;;;;5.43;4.20;;;37.10;37.00;;;;;;5023347;28;20220;-79
2023/06/18 12:39:40;;;;;;;4.70;4.10;;;37.10;37.10;;;;;;5025862;28;20213;-80
2023/06/18 12:42:12;;;;;;;3.80;3.50;;;37.10;37.40;;;;;;5020768;28;20221;-79
2023/06/18 12:44:41;;;;;;;4.28;3.90;;;37.20;37.10;;;;;;5025972;28;20229;-79
2023/06/18 12:47:10;;;;;;;4.32;3.95;;;37.10;36.80;;;;;;5024577;28;20220;-80
2023/06/18 12:49:41;;;;;;;4.47;4.07;;;37.00;36.50;;;;;;5025825;28;20231;-79